Time;durP1;ratioP1;P1;durP2;ratioP2;P2;SDS_P1;SDS_P2;PMS_P1;PMS_P2;Temp;Humidity;BMP_temperature;BMP_pressure;BME280_temperature;BME280_humidity;BME280_pressure;Samples;Min_cycle;Max_cycle;Signal;HPM_P1;HPM_P2
2021/12/17 00:00:19;;;;;;;26.13;10.30;;;;;;;5.42;38.24;103886.00;5033009;28;20487;-45
2021/12/17 00:03:09;;;;;;;23.97;11.00;;;;;;;5.46;37.60;103886.69;5032078;28;20946;-44
2021/12/17 00:08:23;;;;;;;20.80;9.90;;;;;;;5.52;41.11;103883.69;5031271;28;20491;-45
2021/12/17 00:10:51;;;;;;;25.60;10.43;;;;;;;5.40;39.33;103897.63;5032379;28;20424;-44
2021/12/17 00:13:20;;;;;;;22.07;10.10;;;;;;;5.35;38.82;103900.50;5032038;28;20539;-47
2021/12/17 00:15:47;;;;;;;15.77;8.80;;;;;;;5.30;36.35;103893.78;5032271;28;20448;-44
2021/12/17 00:18:21;;;;;;;23.57;9.47;;;;;;;5.37;34.90;103892.50;5031929;28;21091;-45
2021/12/17 00:43:53;;;;;;;14.20;9.83;;;;;;;5.57;41.79;103873.69;5031859;28;20476;-46
2021/12/17 00:48:51;;;;;;;14.30;8.00;;;;;;;5.67;40.94;103856.34;5031657;28;20511;-43
2021/12/17 00:54:18;;;;;;;11.33;6.93;;;;;;;5.66;46.09;103859.06;5031651;28;20448;-43
2021/12/17 00:56:47;;;;;;;13.73;8.30;;;;;;;5.65;46.31;103860.84;5031304;28;20462;-44
2021/12/17 00:59:14;;;;;;;17.77;8.43;;;;;;;5.66;45.62;103843.19;5030617;28;20436;-45
2021/12/17 01:01:43;;;;;;;12.90;8.27;;;;;;;5.70;43.17;103837.63;5031247;28;21246;-44
2021/12/17 01:04:11;;;;;;;22.90;10.00;;;;;;;5.72;43.62;103830.44;5031399;28;20455;-47
2021/12/17 01:06:39;;;;;;;16.00;8.80;;;;;;;5.76;43.90;103839.06;5031060;28;20511;-45
2021/12/17 01:09:16;;;;;;;12.90;7.80;;;;;;;5.75;46.57;103840.00;5031462;28;20429;-45
2021/12/17 01:11:44;;;;;;;16.87;8.07;;;;;;;5.72;48.02;103846.31;5031116;28;20442;-43
2021/12/17 01:14:13;;;;;;;15.00;7.83;;;;;;;5.64;49.11;103837.13;5031014;28;20538;-46
2021/12/17 01:16:41;;;;;;;19.90;8.93;;;;;;;5.66;47.13;103856.41;5030843;28;21293;-45
2021/12/17 01:19:17;;;;;;;17.90;8.50;;;;;;;5.69;47.56;103843.84;5031096;28;20440;-44
2021/12/17 01:21:59;;;;;;;14.97;8.80;;;;;;;5.70;47.80;103848.22;5030978;28;21114;-45
2021/12/17 01:24:44;;;;;;;18.93;9.40;;;;;;;5.73;48.06;103849.84;5031254;28;20448;-44
2021/12/17 01:35:30;;;;;;;16.70;9.87;;;;;;;5.81;47.67;103856.38;5030992;28;20443;-43
2021/12/17 01:41:12;;;;;;;14.40;9.50;;;;;;;5.76;50.12;103844.34;5025587;28;20559;-43
2021/12/17 01:43:44;;;;;;;28.90;9.93;;;;;;;5.75;50.63;103856.75;5030377;28;20458;-45
2021/12/17 01:46:20;;;;;;;16.60;9.40;;;;;;;5.75;50.57;103866.47;5030952;28;20428;-45
2021/12/17 01:48:59;;;;;;;15.33;8.80;;;;;;;5.70;50.90;103868.53;5030536;28;20523;-43
2021/12/17 01:59:18;;;;;;;12.23;7.97;;;;;;;5.53;41.91;103875.66;5030332;28;20455;-41
2021/12/17 01:59:50;;;;;;;14.90;8.40;;;;;;;5.43;39.64;103871.84;5030694;28;20447;-41
2021/12/17 02:02:18;;;;;;;17.47;8.10;;;;;;;5.44;37.17;103864.72;5030419;28;20440;-44
2021/12/17 02:04:46;;;;;;;15.60;9.00;;;;;;;5.44;35.67;103856.78;5030602;28;20460;-46
2021/12/17 02:07:14;;;;;;;18.73;9.00;;;;;;;5.49;34.27;103855.63;5030005;28;20993;-45
2021/12/17 02:12:46;;;;;;;14.80;9.37;;;;;;;5.48;34.29;103850.38;5030015;28;20444;-47
2021/12/17 02:29:21;;;;;;;23.47;9.80;;;;;;;5.69;40.04;103830.63;5030279;28;20462;-45
2021/12/17 02:31:55;;;;;;;22.93;9.97;;;;;;;5.66;41.97;103837.88;5030144;28;20438;-46
2021/12/17 02:34:37;;;;;;;26.37;11.77;;;;;;;5.63;42.56;103843.34;5030121;28;20455;-46
2021/12/17 02:37:10;;;;;;;15.10;9.13;;;;;;;5.55;41.66;103851.75;5029578;28;20466;-47
2021/12/17 02:39:58;;;;;;;16.13;10.10;;;;;;;5.50;39.32;103846.72;5030115;28;20458;-45
2021/12/17 02:45:31;;;;;;;17.67;9.40;;;;;;;5.59;37.75;103835.59;5029621;28;20479;-42
2021/12/17 02:45:32;;;;;;;20.40;10.20;;;;;;;5.60;39.33;103823.22;5030062;28;20424;-45
2021/12/17 02:48:05;;;;;;;29.60;10.33;;;;;;;5.53;40.62;103821.84;5029841;28;20464;-43
2021/12/17 02:50:35;;;;;;;25.37;11.67;;;;;;;5.58;39.56;103825.94;5030254;28;20510;-44
2021/12/17 02:53:07;;;;;;;22.23;9.33;;;;;;;5.51;39.11;103826.38;5029677;28;20546;-46
2021/12/17 02:55:38;;;;;;;18.40;9.70;;;;;;;5.50;37.98;103829.97;5029995;28;20842;-46
2021/12/17 02:58:08;;;;;;;15.60;10.10;;;;;;;5.48;37.88;103831.84;5029643;28;20539;-47
2021/12/17 03:00:38;;;;;;;21.53;11.57;;;;;;;5.45;36.78;103834.69;5030217;28;20442;-46
2021/12/17 03:03:07;;;;;;;25.33;10.93;;;;;;;5.51;35.82;103834.34;5029766;28;20436;-48
2021/12/17 03:05:38;;;;;;;23.03;11.53;;;;;;;5.52;36.23;103823.66;5030035;28;20439;-45
2021/12/17 03:08:11;;;;;;;26.03;12.60;;;;;;;5.50;37.46;103816.72;5029550;28;20464;-48
2021/12/17 03:10:39;;;;;;;24.93;10.70;;;;;;;5.45;39.11;103822.31;5030075;28;20439;-43
2021/12/17 03:13:07;;;;;;;10.63;8.70;;;;;;;5.30;40.67;103817.03;5029619;28;20531;-44
2021/12/17 03:15:39;;;;;;;15.27;10.23;;;;;;;5.23;38.92;103810.38;5029755;28;20442;-47
2021/12/17 03:18:40;;;;;;;16.17;10.10;;;;;;;5.19;34.19;103807.06;5029447;28;21027;-43
2021/12/17 03:23:51;;;;;;;13.83;9.10;;;;;;;5.18;31.73;103797.41;5032499;28;20918;-44
2021/12/17 03:26:21;;;;;;;20.33;9.47;;;;;;;5.11;33.20;103804.00;5033390;28;20433;-43
2021/12/17 03:28:51;;;;;;;18.00;10.43;;;;;;;5.09;31.52;103812.97;5033103;28;20435;-46
2021/12/17 03:31:22;;;;;;;19.37;10.57;;;;;;;5.10;28.57;103804.09;5033176;28;20814;-48
2021/12/17 03:33:52;;;;;;;30.87;13.10;;;;;;;5.09;27.66;103805.03;5032735;28;20547;-43
2021/12/17 03:36:21;;;;;;;16.93;11.10;;;;;;;5.14;27.45;103809.09;5033172;28;20980;-41
2021/12/17 03:38:51;;;;;;;24.40;12.63;;;;;;;5.17;27.54;103808.94;5032842;28;20448;-45
2021/12/17 03:41:23;;;;;;;22.93;11.10;;;;;;;5.17;28.95;103808.09;5032900;28;20860;-42
2021/12/17 03:43:53;;;;;;;19.00;10.47;;;;;;;5.19;30.78;103804.44;5032582;28;20455;-42
2021/12/17 03:46:22;;;;;;;25.67;10.53;;;;;;;5.19;32.75;103806.22;5033142;28;20523;-45
2021/12/17 03:48:50;;;;;;;23.00;12.40;;;;;;;5.19;32.76;103819.44;5032782;28;20489;-43
2021/12/17 03:51:19;;;;;;;26.37;11.97;;;;;;;5.16;31.82;103825.78;5032976;28;20428;-45
2021/12/17 03:53:49;;;;;;;29.13;11.23;;;;;;;5.10;31.31;103835.84;5030327;28;20993;-44
2021/12/17 03:56:19;;;;;;;24.17;11.60;;;;;;;5.11;30.09;103842.84;5028067;28;20444;-41
2021/12/17 03:58:48;;;;;;;23.53;11.27;;;;;;;5.12;30.74;103833.94;5029943;28;20464;-42
2021/12/17 04:01:16;;;;;;;18.07;10.27;;;;;;;5.13;31.61;103825.09;5031806;28;20495;-44
2021/12/17 04:03:44;;;;;;;21.07;10.40;;;;;;;5.12;31.68;103831.31;5031729;28;20472;-45
2021/12/17 04:06:12;;;;;;;19.70;10.03;;;;;;;5.09;32.00;103834.97;5032371;28;20432;-44
2021/12/17 04:08:39;;;;;;;18.30;8.80;;;;;;;5.12;31.64;103821.56;5031571;28;20535;-42
2021/12/17 04:11:09;;;;;;;14.17;9.67;;;;;;;5.11;30.60;103819.03;5032716;28;20516;-46
2021/12/17 04:13:38;;;;;;;17.23;9.03;;;;;;;5.01;30.50;103826.63;5032147;28;20452;-47
2021/12/17 04:16:10;;;;;;;20.50;10.10;;;;;;;5.01;27.84;103824.84;5032436;28;20444;-46
2021/12/17 04:18:41;;;;;;;19.60;8.30;;;;;;;4.99;28.36;103834.63;5031946;28;20461;-49
2021/12/17 04:21:13;;;;;;;19.10;9.57;;;;;;;4.90;27.62;103829.84;5032161;28;20429;-45
2021/12/17 04:23:42;;;;;;;19.50;9.80;;;;;;;4.91;26.24;103830.72;5032044;28;20490;-46
2021/12/17 04:26:10;;;;;;;20.70;9.80;;;;;;;4.95;26.33;103827.81;5032351;28;20442;-49
2021/12/17 04:28:44;;;;;;;26.63;9.53;;;;;;;4.94;26.18;103820.81;5031706;28;20474;-47
2021/12/17 04:31:12;;;;;;;12.00;8.10;;;;;;;4.89;25.85;103835.25;5032202;28;20436;-46
2021/12/17 04:33:42;;;;;;;30.63;10.33;;;;;;;4.86;24.24;103838.91;5031547;28;20460;-48
2021/12/17 04:36:12;;;;;;;22.77;11.47;;;;;;;4.91;23.03;103838.63;5032336;28;20520;-44
2021/12/17 04:38:41;;;;;;;14.43;10.27;;;;;;;4.94;21.63;103839.34;5031384;28;21245;-46
2021/12/17 04:44:03;;;;;;;21.90;10.93;;;;;;;4.89;18.46;103836.09;5031522;28;20490;-48
2021/12/17 04:46:36;;;;;;;16.17;10.93;;;;;;;4.89;15.43;103830.81;5031563;28;20431;-44
2021/12/17 04:57:28;;;;;;;25.50;13.27;;;;;;;5.12;14.14;103824.22;5031470;28;20468;-44
2021/12/17 05:00:00;;;;;;;30.23;15.20;;;;;;;5.23;14.07;103823.59;5031719;28;20434;-48
2021/12/17 05:02:29;;;;;;;29.43;14.57;;;;;;;5.27;14.86;103811.91;5030853;28;20505;-48
2021/12/17 05:05:04;;;;;;;40.10;16.40;;;;;;;5.33;16.96;103819.50;5031465;28;20462;-45
2021/12/17 05:07:32;;;;;;;24.53;13.90;;;;;;;5.37;18.45;103828.97;5031282;28;20472;-45
2021/12/17 05:10:08;;;;;;;29.10;15.80;;;;;;;5.38;21.15;103818.28;5031658;28;21056;-45
2021/12/17 05:18:20;;;;;;;28.80;13.67;;;;;;;5.17;25.27;103816.03;5004424;28;20475;-45
2021/12/17 05:20:49;;;;;;;36.50;17.07;;;;;;;5.19;22.90;103840.63;5031467;28;20420;-46
2021/12/17 05:23:22;;;;;;;22.80;13.77;;;;;;;5.19;22.18;103835.31;5030679;28;20484;-50
2021/12/17 05:25:50;;;;;;;21.67;13.47;;;;;;;5.14;22.58;103847.97;5031088;28;20440;-46
2021/12/17 05:28:17;;;;;;;24.57;14.00;;;;;;;5.14;21.90;103837.38;5030698;28;20467;-49
2021/12/17 05:30:47;;;;;;;20.20;13.60;;;;;;;5.17;20.39;103835.38;5031251;28;20433;-45
2021/12/17 05:33:17;;;;;;;22.07;13.07;;;;;;;5.14;20.12;103827.63;5030694;28;20506;-46
2021/12/17 05:35:44;;;;;;;29.57;15.33;;;;;;;5.17;19.48;103826.63;5029368;28;20431;-45
2021/12/17 05:38:13;;;;;;;22.50;13.90;;;;;;;5.18;18.65;103823.03;5030206;28;21265;-44
2021/12/17 05:40:42;;;;;;;36.63;16.63;;;;;;;5.24;18.17;103823.53;5030736;28;20436;-46
2021/12/17 05:43:11;;;;;;;27.80;14.47;;;;;;;5.30;18.99;103827.63;5030378;28;20477;-47
2021/12/17 05:45:50;;;;;;;26.80;13.40;;;;;;;5.28;20.58;103835.66;5030433;28;20535;-47
2021/12/17 05:48:21;;;;;;;22.80;13.77;;;;;;;5.23;20.90;103836.84;5030228;28;20478;-44
2021/12/17 05:50:51;;;;;;;24.20;12.93;;;;;;;5.18;18.65;103845.03;5030146;28;20460;-43
2021/12/17 05:53:20;;;;;;;18.80;13.10;;;;;;;5.21;16.96;103842.22;5030550;28;20816;-48
2021/12/17 05:55:47;;;;;;;30.40;13.33;;;;;;;5.20;16.76;103851.09;5030840;28;20428;-47
2021/12/17 05:58:15;;;;;;;26.43;14.03;;;;;;;5.30;16.58;103840.84;5030150;28;20906;-46
2021/12/17 06:00:45;;;;;;;23.50;12.90;;;;;;;5.35;17.09;103838.78;5030549;28;20442;-44
2021/12/17 06:03:13;;;;;;;17.80;11.63;;;;;;;5.28;18.96;103846.25;5029788;28;21003;-44
2021/12/17 06:05:42;;;;;;;19.33;12.17;;;;;;;5.24;19.15;103838.53;5030070;28;20437;-44
2021/12/17 06:08:10;;;;;;;8.60;7.37;;;;;;;5.15;20.43;103849.66;5029969;28;20559;-43
2021/12/17 06:10:38;;;;;;;6.97;6.30;;;;;;;5.05;24.54;103857.25;5030640;28;20523;-44
2021/12/17 06:13:06;;;;;;;6.00;5.47;;;;;;;5.05;25.34;103856.41;5029823;28;21029;-44
2021/12/17 06:15:33;;;;;;;6.70;6.07;;;;;;;5.02;25.04;103852.13;5030211;28;20535;-43
2021/12/17 06:18:01;;;;;;;10.17;6.20;;;;;;;5.06;22.98;103856.31;5006382;28;20663;-43
2021/12/17 06:20:29;;;;;;;6.73;6.33;;;;;;;5.05;22.85;103856.41;5030204;28;20528;-46
2021/12/17 06:22:58;;;;;;;6.03;5.53;;;;;;;5.08;22.36;103854.41;5029694;28;20472;-45
2021/12/17 06:25:25;;;;;;;5.80;5.30;;;;;;;5.08;21.70;103849.13;4981524;28;20483;-43
2021/12/17 06:27:55;;;;;;;5.30;4.87;;;;;;;5.09;21.94;103850.00;5005421;28;20460;-46
2021/12/17 06:30:23;;;;;;;5.93;5.47;;;;;;;5.11;22.53;103848.13;5030229;28;20511;-46
2021/12/17 06:32:51;;;;;;;8.90;5.67;;;;;;;5.13;21.79;103851.53;5029471;28;20441;-45
2021/12/17 06:35:19;;;;;;;5.67;5.27;;;;;;;5.21;20.88;103847.53;5030624;28;21044;-46
2021/12/17 06:37:46;;;;;;;6.43;5.60;;;;;;;5.25;21.77;103853.50;5062522;22;20485;-44
2021/12/17 06:40:15;;;;;;;8.33;6.27;;;;;;;5.28;23.61;103848.88;5012039;28;20433;-43
2021/12/17 06:42:44;;;;;;;9.77;5.57;;;;;;;5.21;24.58;103847.53;5012143;28;20473;-43
2021/12/17 06:45:20;;;;;;;12.40;6.80;;;;;;;5.24;23.59;103843.84;5012856;28;20433;-44
2021/12/17 06:47:54;;;;;;;10.20;6.97;;;;;;;5.24;22.76;103851.78;4997905;28;20469;-42
2021/12/17 06:56:39;;;;;;;9.53;7.50;;;;;;;5.25;19.50;103850.84;4985202;28;20438;-44
2021/12/17 06:59:13;;;;;;;7.70;6.93;;;;;;;5.23;18.18;103853.56;4989894;28;20454;-44
2021/12/17 07:08:15;;;;;;;9.03;6.73;;;;;;;5.27;16.08;103854.25;4981703;28;20459;-43
2021/12/17 07:10:29;;;;;;;6.80;6.40;;;;;;;5.26;15.24;103855.19;4990106;28;20530;-44
2021/12/17 07:19:24;;;;;;;6.70;6.20;;;;;;;5.35;15.35;103836.13;4985271;28;20565;-42
2021/12/17 07:21:59;;;;;;;7.70;7.00;;;;;;;5.30;14.15;103838.19;4969420;28;20447;-45
2021/12/17 07:24:49;;;;;;;6.70;6.23;;;;;;;5.29;12.35;103866.44;4976247;28;20474;-44
2021/12/17 07:33:03;;;;;;;8.77;7.17;;;;;;;5.40;11.14;103868.50;4975514;28;20879;-43
2021/12/17 07:35:45;;;;;;;10.90;7.07;;;;;;;5.39;10.79;103862.34;4976312;28;20431;-44
2021/12/17 07:40:59;;;;;;;11.23;8.00;;;;;;;5.49;10.93;103874.13;4975910;28;20529;-44
2021/12/17 07:43:32;;;;;;;8.30;7.50;;;;;;;5.47;10.76;103869.84;4975163;28;21038;-42
2021/12/17 07:46:04;;;;;;;12.03;7.90;;;;;;;5.50;10.75;103861.72;4976325;28;20934;-43
2021/12/17 07:48:33;;;;;;;10.97;8.83;;;;;;;5.53;10.09;103867.72;4976268;28;20481;-44
2021/12/17 07:51:03;;;;;;;18.37;9.37;;;;;;;5.55;10.58;103855.22;4975906;28;20533;-45
2021/12/17 07:53:31;;;;;;;15.90;11.33;;;;;;;5.54;9.97;103857.97;4977079;28;20875;-42
2021/12/17 07:56:00;;;;;;;19.27;10.60;;;;;;;5.60;9.51;103873.50;4976827;28;20447;-45
2021/12/17 07:58:28;;;;;;;18.30;11.50;;;;;;;5.63;9.72;103873.34;4976359;28;20613;-44
2021/12/17 08:00:56;;;;;;;13.93;9.93;;;;;;;5.67;10.52;103877.53;4977085;28;20431;-43
2021/12/17 08:03:26;;;;;;;19.70;11.60;;;;;;;5.73;12.09;103876.31;4976554;28;20485;-45
2021/12/17 08:05:54;;;;;;;17.57;11.53;;;;;;;5.82;12.11;103874.00;4976196;28;20481;-43
2021/12/17 08:08:22;;;;;;;16.40;10.73;;;;;;;5.85;13.40;103872.94;4974147;28;20490;-44
2021/12/17 08:10:50;;;;;;;13.90;10.47;;;;;;;5.81;16.20;103882.00;4976314;28;20478;-43
2021/12/17 08:13:21;;;;;;;10.70;8.97;;;;;;;5.78;17.67;103879.53;4976395;28;20811;-44
2021/12/17 08:16:04;;;;;;;9.53;8.50;;;;;;;5.83;18.29;103882.75;4976598;28;20435;-44
2021/12/17 08:18:49;;;;;;;10.77;8.70;;;;;;;5.78;19.54;103887.47;4975672;28;20481;-44
2021/12/17 08:27:08;;;;;;;8.00;7.20;;;;;;;5.80;20.84;103894.38;4975831;28;20465;-45
2021/12/17 08:29:54;;;;;;;8.23;7.40;;;;;;;5.82;21.98;103887.22;4977502;28;20439;-41
2021/12/17 08:32:22;;;;;;;12.33;7.20;;;;;;;5.86;21.44;103888.78;4977073;28;20494;-43
2021/12/17 08:34:51;;;;;;;9.60;7.43;;;;;;;5.88;21.97;103891.34;4976097;28;20530;-44
2021/12/17 08:37:19;;;;;;;12.13;7.57;;;;;;;5.92;21.91;103890.19;4975352;28;20565;-44
2021/12/17 08:39:46;;;;;;;8.53;7.03;;;;;;;5.90;21.59;103892.97;4968277;28;20510;-42
2021/12/17 08:42:14;;;;;;;7.40;6.80;;;;;;;6.01;20.74;103894.97;4976153;28;20439;-44
2021/12/17 08:44:42;;;;;;;7.13;6.57;;;;;;;6.06;21.65;103882.31;4975062;28;20559;-45
2021/12/17 08:47:10;;;;;;;7.27;6.53;;;;;;;6.11;22.73;103874.94;4975456;28;20467;-44
2021/12/17 08:49:40;;;;;;;8.33;7.20;;;;;;;6.15;24.75;103870.31;4975989;28;20932;-42
2021/12/17 08:52:09;;;;;;;7.80;6.57;;;;;;;6.15;25.28;103871.16;4976190;28;20808;-42
2021/12/17 08:54:37;;;;;;;7.00;6.40;;;;;;;6.18;25.66;103864.84;4976120;28;20526;-45
2021/12/17 08:57:06;;;;;;;8.50;7.70;;;;;;;6.30;24.88;103870.22;4975509;28;20575;-46
2021/12/17 08:59:34;;;;;;;7.00;6.40;;;;;;;6.33;27.35;103874.50;4976169;28;20526;-43
2021/12/17 09:02:02;;;;;;;7.70;6.30;;;;;;;6.30;30.61;103872.88;4975909;28;20441;-42
2021/12/17 09:04:29;;;;;;;7.00;6.40;;;;;;;6.36;30.80;103876.97;4975564;28;20486;-43
2021/12/17 09:06:58;;;;;;;7.10;6.53;;;;;;;6.40;30.61;103878.47;4975518;28;20901;-43
2021/12/17 09:09:27;;;;;;;6.80;6.30;;;;;;;6.46;32.27;103873.66;4975585;28;20518;-43
2021/12/17 09:11:55;;;;;;;6.83;6.33;;;;;;;6.49;33.15;103873.47;4975895;28;20443;-43
2021/12/17 09:14:22;;;;;;;7.50;7.00;;;;;;;6.56;34.38;103871.31;4975290;28;20431;-45
2021/12/17 09:16:51;;;;;;;8.10;7.37;;;;;;;6.69;32.51;103878.38;4975295;28;20549;-43
2021/12/17 09:19:19;;;;;;;8.00;7.33;;;;;;;6.73;38.02;103875.53;4975805;28;20518;-44
2021/12/17 09:21:48;;;;;;;9.10;8.17;;;;;;;6.86;34.60;103864.09;4974809;28;20453;-42
2021/12/17 09:24:16;;;;;;;10.63;9.17;;;;;;;6.91;39.46;103855.81;4975569;28;20481;-43
2021/12/17 09:26:45;;;;;;;9.67;8.67;;;;;;;6.99;40.47;103858.88;4975741;28;20466;-45
2021/12/17 09:29:12;;;;;;;10.23;9.43;;;;;;;7.03;43.16;103857.69;4975616;28;20455;-43
2021/12/17 09:31:41;;;;;;;10.80;8.40;;;;;;;7.06;44.64;103839.78;4975699;28;20533;-42
2021/12/17 09:34:09;;;;;;;15.73;10.57;;;;;;;7.11;44.95;103853.59;4975468;28;20805;-43
2021/12/17 09:36:37;;;;;;;8.40;7.00;;;;;;;7.16;45.48;103853.31;4975458;28;20534;-45
2021/12/17 09:39:05;;;;;;;7.90;7.30;;;;;;;7.19;46.45;103851.34;4975246;28;20557;-44
2021/12/17 09:41:33;;;;;;;8.47;7.67;;;;;;;7.30;43.70;103860.38;4975968;28;20462;-43
2021/12/17 09:44:02;;;;;;;13.87;7.90;;;;;;;7.34;46.47;103867.22;4975089;28;20581;-47
2021/12/17 09:46:29;;;;;;;12.53;8.07;;;;;;;7.40;45.81;103853.53;4975299;28;20438;-44
2021/12/17 09:48:57;;;;;;;8.07;7.40;;;;;;;7.43;47.20;103853.34;4971216;28;20481;-43
2021/12/17 09:51:25;;;;;;;8.90;8.10;;;;;;;7.47;50.48;103860.97;4973711;28;20450;-45
2021/12/17 09:53:53;;;;;;;11.07;8.47;;;;;;;7.49;50.89;103848.47;4973615;28;20470;-43
2021/12/17 09:56:20;;;;;;;8.47;7.80;;;;;;;7.59;48.70;103861.97;4972812;28;20521;-48
2021/12/17 09:58:48;;;;;;;7.73;7.23;;;;;;;7.70;46.18;103867.44;4973289;28;20467;-43
2021/12/17 10:01:17;;;;;;;10.00;7.80;;;;;;;7.73;48.82;103867.25;4973538;28;20808;-43
2021/12/17 10:03:45;;;;;;;14.23;9.00;;;;;;;7.77;50.80;103874.03;4972793;28;20978;-42
2021/12/17 10:06:23;;;;;;;10.03;8.27;;;;;;;7.87;51.07;103882.25;4973738;28;20478;-44
2021/12/17 10:08:51;;;;;;;8.50;7.70;;;;;;;7.92;51.16;103878.31;4972214;28;20467;-44
2021/12/17 10:11:20;;;;;;;8.03;7.23;;;;;;;7.97;53.62;103881.53;4973053;28;20463;-42
2021/12/17 10:13:48;;;;;;;7.97;7.37;;;;;;;7.99;55.90;103869.00;4973233;28;20435;-42
2021/12/17 10:16:20;;;;;;;8.57;7.50;;;;;;;7.94;61.40;103862.28;4972547;28;20447;-42
2021/12/17 10:18:50;;;;;;;8.03;7.20;;;;;;;7.95;62.97;103853.34;4972826;28;21009;-42
2021/12/17 10:21:21;;;;;;;9.37;8.40;;;;;;;7.98;62.93;103861.97;4973015;28;20526;-44
2021/12/17 10:23:51;;;;;;;8.77;7.97;;;;;;;7.90;67.88;103864.31;4973117;28;20517;-45
2021/12/17 10:26:20;;;;;;;9.77;7.90;;;;;;;7.95;64.62;103851.53;4972502;28;20474;-46
2021/12/17 10:28:55;;;;;;;8.50;7.70;;;;;;;7.94;63.91;103847.22;4973042;28;20882;-45
2021/12/17 10:31:27;;;;;;;8.70;7.93;;;;;;;7.97;62.52;103848.81;4973293;28;20954;-43
2021/12/17 10:33:58;;;;;;;7.57;6.87;;;;;;;8.01;61.72;103847.63;4976975;28;20439;-44
2021/12/17 10:36:31;;;;;;;6.93;6.43;;;;;;;7.93;65.56;103841.97;4976088;28;20465;-43
2021/12/17 10:39:21;;;;;;;8.70;7.80;;;;;;;7.70;65.61;103846.19;4975174;28;20566;-43
2021/12/17 10:41:49;;;;;;;7.43;6.80;;;;;;;7.80;60.62;103836.63;4976280;28;20484;-44
2021/12/17 10:44:19;;;;;;;7.67;7.10;;;;;;;7.76;59.53;103832.50;4977187;28;20526;-43
2021/12/17 10:47:07;;;;;;;7.30;6.80;;;;;;;7.79;57.51;103832.31;4975707;28;20541;-44
2021/12/17 10:49:35;;;;;;;7.60;7.00;;;;;;;7.87;55.76;103837.09;4977025;28;20525;-44
2021/12/17 10:52:08;;;;;;;7.93;6.97;;;;;;;7.78;57.23;103825.28;4976753;28;20968;-44
2021/12/17 10:54:35;;;;;;;6.40;6.00;;;;;;;7.79;55.17;103834.97;4977170;28;20527;-44
2021/12/17 10:57:08;;;;;;;7.50;6.90;;;;;;;7.85;54.90;103837.19;4982462;28;21002;-44
2021/12/17 10:59:37;;;;;;;7.60;7.20;;;;;;;7.88;55.79;103837.00;4995895;28;21189;-43
2021/12/17 11:02:11;;;;;;;6.63;6.23;;;;;;;7.78;55.14;103834.09;4995586;28;20456;-44
2021/12/17 11:04:40;;;;;;;6.80;6.40;;;;;;;7.84;51.78;103830.19;4995528;28;20959;-45
2021/12/17 11:07:12;;;;;;;6.93;6.43;;;;;;;7.91;50.82;103834.13;4997638;28;20553;-42
2021/12/17 11:09:43;;;;;;;7.63;6.97;;;;;;;7.99;50.24;103839.75;5015796;28;20429;-41
2021/12/17 11:12:29;;;;;;;7.20;6.60;;;;;;;8.01;53.67;103839.66;5006815;28;20434;-43
2021/12/17 11:15:10;;;;;;;7.13;6.73;;;;;;;7.97;56.18;103839.03;5011073;28;20958;-42
2021/12/17 11:17:40;;;;;;;7.50;7.00;;;;;;;8.00;56.95;103838.81;5000487;28;20479;-44
2021/12/17 11:20:10;;;;;;;6.90;6.50;;;;;;;8.06;56.18;103840.19;5015400;28;20447;-44
2021/12/17 11:22:39;;;;;;;7.70;7.10;;;;;;;8.08;57.18;103839.13;5015184;28;20499;-42
2021/12/17 11:25:08;;;;;;;6.87;6.47;;;;;;;8.14;56.17;103845.84;5014598;28;20461;-44
2021/12/17 11:27:36;;;;;;;7.27;6.77;;;;;;;8.18;56.37;103837.53;5014767;28;20484;-44
2021/12/17 11:30:05;;;;;;;6.97;6.47;;;;;;;8.09;58.83;103835.53;5014068;28;20433;-44
2021/12/17 11:32:35;;;;;;;6.07;5.77;;;;;;;7.99;57.49;103829.13;5014674;28;20452;-42
2021/12/17 11:35:05;;;;;;;5.70;5.50;;;;;;;7.94;53.05;103823.28;5014785;28;20472;-43
2021/12/17 11:37:33;;;;;;;6.87;6.47;;;;;;;7.89;49.45;103830.69;5014373;28;20836;-43
2021/12/17 11:40:05;;;;;;;7.00;6.50;;;;;;;7.98;50.82;103839.84;5013984;28;20433;-43
2021/12/17 11:42:59;;;;;;;7.90;6.67;;;;;;;8.03;51.08;103835.94;5014365;28;20448;-41
2021/12/17 11:45:29;;;;;;;6.70;6.40;;;;;;;7.95;53.17;103832.09;5013487;28;20555;-43
2021/12/17 11:48:12;;;;;;;7.20;6.70;;;;;;;8.00;51.61;103830.84;5014238;28;20544;-45
2021/12/17 11:50:43;;;;;;;6.70;6.30;;;;;;;8.03;51.78;103832.44;5014519;28;20437;-43
2021/12/17 11:53:22;;;;;;;6.60;6.20;;;;;;;7.99;53.29;103836.25;5014471;28;20433;-43
2021/12/17 11:55:57;;;;;;;7.07;6.53;;;;;;;7.96;54.49;103844.44;5014315;28;20425;-44
2021/12/17 11:58:45;;;;;;;5.70;5.40;;;;;;;7.89;51.34;103840.47;5013760;28;20943;-42
2021/12/17 12:01:13;;;;;;;5.77;5.47;;;;;;;7.76;50.91;103845.78;5013872;28;20803;-42
2021/12/17 12:03:41;;;;;;;7.23;6.73;;;;;;;7.72;46.85;103839.81;5013815;28;20437;-43
2021/12/17 12:06:37;;;;;;;7.17;6.67;;;;;;;7.72;39.46;103846.94;5013618;28;21064;-44
2021/12/17 12:09:05;;;;;;;6.63;6.23;;;;;;;7.72;40.44;103842.47;5013952;28;20452;-43
2021/12/17 12:11:34;;;;;;;7.57;6.87;;;;;;;7.76;42.94;103845.78;5012816;28;20430;-43
2021/12/17 12:14:02;;;;;;;7.07;6.57;;;;;;;7.71;42.36;103843.44;5014259;28;20468;-42
2021/12/17 12:16:30;;;;;;;7.70;7.20;;;;;;;7.78;41.28;103847.38;5013259;28;20448;-44
2021/12/17 12:19:08;;;;;;;7.20;6.60;;;;;;;7.78;44.78;103843.88;5014022;28;20804;-45
2021/12/17 12:21:39;;;;;;;6.17;5.77;;;;;;;7.82;45.12;103839.22;5013823;28;20866;-45
2021/12/17 12:24:12;;;;;;;6.30;5.90;;;;;;;7.79;47.32;103834.97;5013970;28;20520;-43
2021/12/17 12:26:43;;;;;;;6.20;5.90;;;;;;;7.83;47.17;103831.13;5012444;28;20461;-45
2021/12/17 12:29:14;;;;;;;6.47;5.87;;;;;;;7.85;48.66;103829.22;5014094;28;20540;-42
2021/12/17 12:31:58;;;;;;;6.80;6.30;;;;;;;7.88;48.75;103823.72;5013884;28;20449;-43
2021/12/17 12:34:38;;;;;;;6.43;6.13;;;;;;;8.00;48.98;103820.22;5013642;28;20430;-46
2021/12/17 12:37:26;;;;;;;6.63;6.23;;;;;;;8.05;52.23;103820.75;5012934;28;20471;-42
2021/12/17 12:40:15;;;;;;;5.90;5.60;;;;;;;8.04;55.24;103819.03;5005381;28;20430;-43
2021/12/17 12:42:56;;;;;;;5.57;5.37;;;;;;;7.98;58.30;103819.44;4974793;28;20826;-44
2021/12/17 12:45:25;;;;;;;5.27;4.97;;;;;;;7.95;57.89;103822.31;4974026;28;20437;-43
2021/12/17 12:48:00;;;;;;;5.27;4.90;;;;;;;7.89;60.92;103819.22;4973886;28;20475;-43
2021/12/17 12:50:32;;;;;;;5.20;5.00;;;;;;;7.89;59.81;103820.06;4974978;28;20435;-46
2021/12/17 12:53:09;;;;;;;5.63;5.40;;;;;;;7.86;59.53;103814.13;4974561;28;20443;-44
2021/12/17 12:55:39;;;;;;;5.07;4.83;;;;;;;7.84;57.67;103827.53;4972781;28;20485;-44
2021/12/17 12:58:10;;;;;;;4.90;4.63;;;;;;;7.82;57.67;103823.28;4973639;28;20463;-43
2021/12/17 13:00:43;;;;;;;5.03;4.90;;;;;;;7.75;54.28;103828.13;4974332;28;20987;-45
2021/12/17 13:03:13;;;;;;;5.40;5.00;;;;;;;7.68;52.82;103834.81;4974604;28;20501;-43
2021/12/17 13:05:43;;;;;;;5.10;4.90;;;;;;;7.63;50.62;103834.28;4973810;28;20445;-46
2021/12/17 13:08:15;;;;;;;5.30;5.00;;;;;;;7.58;48.34;103825.78;4973311;28;20467;-43
2021/12/17 13:10:46;;;;;;;5.40;5.20;;;;;;;7.59;47.64;103832.75;4974020;28;20529;-44
2021/12/17 13:13:19;;;;;;;4.73;4.63;;;;;;;7.60;50.91;103837.13;4973966;28;20435;-43
2021/12/17 13:16:01;;;;;;;5.00;4.80;;;;;;;7.55;51.48;103836.59;4973605;28;20613;-46
2021/12/17 13:21:35;;;;;;;5.57;5.37;;;;;;;7.47;46.56;103842.41;4973749;28;20433;-44
2021/12/17 13:24:12;;;;;;;5.10;4.80;;;;;;;7.53;47.99;103843.78;4973595;28;20810;-45
2021/12/17 13:26:43;;;;;;;4.70;4.50;;;;;;;7.55;48.38;103832.13;4972737;28;20529;-45
2021/12/17 13:29:13;;;;;;;5.30;5.00;;;;;;;7.46;51.44;103832.75;4973374;28;20491;-45
2021/12/17 13:31:46;;;;;;;5.10;4.90;;;;;;;7.41;50.95;103833.97;4973644;28;20523;-43
2021/12/17 13:34:18;;;;;;;4.97;4.80;;;;;;;7.35;50.12;103839.72;4973855;28;20431;-45
2021/12/17 13:36:58;;;;;;;5.60;5.30;;;;;;;7.32;49.21;103837.25;4973050;28;20832;-44
2021/12/17 13:39:30;;;;;;;5.93;5.63;;;;;;;7.28;45.62;103841.06;4973513;28;20520;-44
2021/12/17 13:41:58;;;;;;;5.60;5.30;;;;;;;7.25;45.44;103842.13;4973694;28;20438;-44
2021/12/17 13:44:38;;;;;;;6.10;5.70;;;;;;;7.26;41.67;103845.63;4973518;28;20526;-46
2021/12/17 13:47:12;;;;;;;6.73;6.43;;;;;;;7.17;40.46;103847.91;4972780;28;20589;-42